createdAt,value
2018-11-28T00:00:41.073Z,83.24
2018-11-28T00:01:46.087Z,83.39
2018-11-28T00:02:51.486Z,83.42
2018-11-28T00:03:57.344Z,83.14
2018-11-28T00:05:04.230Z,83.52
2018-11-28T00:06:09.306Z,83.64
2018-11-28T00:07:15.452Z,83.75
2018-11-28T00:08:20.298Z,83.63
2018-11-28T00:09:26.159Z,83.30
2018-11-28T00:10:30.578Z,83.66
2018-11-28T00:11:35.400Z,83.57
2018-11-28T00:12:41.629Z,83.33
2018-11-28T00:13:47.857Z,83.39
2018-11-28T00:14:52.824Z,82.91
2018-11-28T00:15:59.041Z,83.20
2018-11-28T00:17:04.302Z,83.28
2018-11-28T00:18:09.281Z,83.40
2018-11-28T00:19:15.018Z,83.08
2018-11-28T00:20:21.371Z,83.37
2018-11-28T00:21:26.141Z,83.78
2018-11-28T00:22:31.233Z,83.00
2018-11-28T00:23:36.804Z,83.39
2018-11-28T00:24:42.533Z,83.01
2018-11-28T00:25:47.574Z,83.43
2018-11-28T00:26:53.834Z,83.48
2018-11-28T00:27:58.553Z,83.35
2018-11-28T00:29:03.793Z,83.40
2018-11-28T00:30:09.999Z,83.40
2018-11-28T00:31:15.221Z,83.24
2018-11-28T00:32:20.206Z,83.48
2018-11-28T00:33:27.667Z,83.01
2018-11-28T00:34:32.492Z,83.21
2018-11-28T00:35:38.385Z,83.72
2018-11-28T00:36:43.138Z,83.07
2018-11-28T00:37:48.580Z,83.54
2018-11-28T00:38:53.735Z,83.24
2018-11-28T00:40:09.108Z,83.43
2018-11-28T00:41:14.241Z,83.17
2018-11-28T00:42:20.056Z,83.34
2018-11-28T00:43:25.214Z,83.20
2018-11-28T00:44:32.978Z,83.26
2018-11-28T00:45:41.744Z,83.08
2018-11-28T00:46:47.990Z,83.37
2018-11-28T00:47:52.616Z,83.41
2018-11-28T00:48:57.986Z,83.11
2018-11-28T00:50:02.631Z,83.63
2018-11-28T00:51:07.371Z,83.51
2018-11-28T00:52:12.324Z,83.79
2018-11-28T00:53:17.002Z,83.54
2018-11-28T00:54:21.751Z,83.75
2018-11-28T00:55:28.365Z,84.09
2018-11-28T00:56:33.454Z,83.95
2018-11-28T00:57:38.315Z,83.99
2018-11-28T00:58:44.639Z,83.89
2018-11-28T00:59:50.945Z,84.08
2018-11-28T01:00:56.972Z,84.10
2018-11-28T01:02:01.817Z,84.11
2018-11-28T01:03:06.617Z,83.83
2018-11-28T01:04:11.471Z,84.26
2018-11-28T01:05:17.045Z,84.25
2018-11-28T01:06:22.485Z,84.52
2018-11-28T01:07:27.183Z,84.29
2018-11-28T01:08:32.853Z,84.14
2018-11-28T01:09:38.210Z,83.96
2018-11-28T01:10:42.954Z,84.61
2018-11-28T01:11:47.945Z,84.31
2018-11-28T01:12:52.985Z,84.53
2018-11-28T01:13:58.226Z,84.42
2018-11-28T01:15:04.129Z,84.62
2018-11-28T01:16:09.222Z,84.54
2018-11-28T01:17:14.951Z,84.83
2018-11-28T01:18:20.212Z,84.45
2018-11-28T01:19:25.843Z,84.58
2018-11-28T01:20:31.731Z,84.60
2018-11-28T01:21:37.279Z,84.86
2018-11-28T01:22:42.365Z,84.89
2018-11-28T01:23:47.354Z,84.85
2018-11-28T01:24:52.437Z,84.69
2018-11-28T01:25:57.398Z,84.84
2018-11-28T01:27:03.794Z,85.04
2018-11-28T01:28:10.240Z,85.20
2018-11-28T01:29:15.896Z,84.87
2018-11-28T01:30:21.777Z,84.97
2018-11-28T01:31:28.599Z,85.04
2018-11-28T01:32:34.855Z,85.25
2018-11-28T01:33:40.819Z,85.17
2018-11-28T01:34:45.885Z,85.34
2018-11-28T01:35:51.141Z,85.19
2018-11-28T01:36:57.252Z,85.20
2018-11-28T01:38:02.838Z,85.36
2018-11-28T01:39:08.115Z,85.58
2018-11-28T01:40:17.684Z,85.36
2018-11-28T01:41:22.655Z,85.49
2018-11-28T01:42:27.312Z,85.41
2018-11-28T01:43:32.332Z,85.71
2018-11-28T01:44:37.972Z,85.60
2018-11-28T01:45:43.250Z,85.40
2018-11-28T01:46:49.326Z,85.56
2018-11-28T01:47:54.227Z,85.73
2018-11-28T01:48:59.565Z,85.81
2018-11-28T01:50:06.102Z,85.54
2018-11-28T01:51:11.193Z,86.01
2018-11-28T01:52:15.842Z,85.90
2018-11-28T01:53:21.267Z,85.88
2018-11-28T01:54:26.142Z,85.94
2018-11-28T01:55:30.796Z,85.98
2018-11-28T01:56:37.131Z,85.94
2018-11-28T01:57:42.054Z,85.93
2018-11-28T01:58:46.774Z,85.68
2018-11-28T01:59:52.463Z,85.96
2018-11-28T02:00:57.722Z,85.87
2018-11-28T02:02:03.995Z,86.08
2018-11-28T02:03:09.141Z,86.20
2018-11-28T02:04:13.963Z,85.85
2018-11-28T02:05:19.360Z,86.14
2018-11-28T02:06:25.597Z,86.30
2018-11-28T02:07:30.969Z,86.20
2018-11-28T02:08:36.523Z,86.32
2018-11-28T02:09:44.571Z,86.24
2018-11-28T02:10:49.868Z,86.73
2018-11-28T02:11:54.691Z,86.59
2018-11-28T02:12:59.818Z,86.06
2018-11-28T02:14:04.788Z,86.51
2018-11-28T02:15:11.106Z,86.57
2018-11-28T02:16:16.164Z,86.38
2018-11-28T02:17:21.375Z,86.43
2018-11-28T02:18:27.184Z,86.57
2018-11-28T02:19:33.952Z,86.30
2018-11-28T02:20:38.848Z,86.38
2018-11-28T02:21:43.674Z,86.44
2018-11-28T02:22:48.741Z,86.71
2018-11-28T02:23:54.936Z,86.16
2018-11-28T02:25:01.478Z,86.73
2018-11-28T02:26:06.568Z,86.43
2018-11-28T02:27:11.654Z,86.63
2018-11-28T02:28:17.602Z,87.00
2018-11-28T02:29:24.326Z,86.66
2018-11-28T02:30:28.720Z,86.89
2018-11-28T02:31:34.482Z,86.74
2018-11-28T02:32:39.504Z,86.75
2018-11-28T02:33:44.350Z,86.72
2018-11-28T02:34:49.986Z,86.87
2018-11-28T02:35:55.433Z,86.87
2018-11-28T02:37:01.467Z,86.89
2018-11-28T02:38:06.394Z,86.87
2018-11-28T02:39:12.215Z,86.42
2018-11-28T02:40:17.729Z,86.70
2018-11-28T02:41:24.233Z,86.62
2018-11-28T02:42:29.029Z,86.65
2018-11-28T02:43:34.459Z,86.43
2018-11-28T02:44:39.668Z,86.32
2018-11-28T02:45:45.050Z,86.69
2018-11-28T02:46:50.160Z,86.38
2018-11-28T02:47:56.140Z,86.70
2018-11-28T02:49:01.170Z,86.43
2018-11-28T02:50:07.205Z,86.38
2018-11-28T02:51:12.242Z,86.71
2018-11-28T02:52:17.863Z,86.45
2018-11-28T02:53:22.722Z,86.52
2018-11-28T02:54:28.000Z,86.61
2018-11-28T02:55:33.403Z,86.70
2018-11-28T02:56:40.270Z,86.67
2018-11-28T02:57:46.914Z,86.56
2018-11-28T02:58:52.824Z,86.70
2018-11-28T02:59:58.393Z,86.49
2018-11-28T03:01:03.933Z,86.77
2018-11-28T03:02:09.451Z,87.00
2018-11-28T03:03:14.476Z,87.00
2018-11-28T03:04:19.450Z,86.84
2018-11-28T03:05:24.863Z,86.93
2018-11-28T03:06:30.954Z,86.72
2018-11-28T03:07:36.246Z,86.95
2018-11-28T03:08:41.126Z,86.84
2018-11-28T03:09:46.932Z,86.65
2018-11-28T03:10:51.916Z,86.74
2018-11-28T03:11:58.374Z,86.91
2018-11-28T03:13:03.751Z,86.72
2018-11-28T03:14:09.333Z,86.51
2018-11-28T03:15:17.408Z,86.74
2018-11-28T03:16:23.005Z,86.58
2018-11-28T03:17:28.147Z,86.98
2018-11-28T03:18:33.242Z,86.72
2018-11-28T03:19:38.781Z,86.77
2018-11-28T03:20:43.824Z,87.04
2018-11-28T03:21:49.298Z,86.79
2018-11-28T03:22:55.344Z,86.65
2018-11-28T03:24:00.513Z,86.78
2018-11-28T03:25:05.818Z,87.25
2018-11-28T03:26:10.518Z,87.08
2018-11-28T03:27:16.038Z,87.01
2018-11-28T03:28:21.543Z,86.89
2018-11-28T03:29:27.460Z,87.03
2018-11-28T03:30:32.216Z,87.25
2018-11-28T03:31:38.022Z,87.38
2018-11-28T03:32:42.925Z,87.33
2018-11-28T03:33:47.930Z,87.20
2018-11-28T03:34:53.245Z,87.07
2018-11-28T03:36:00.071Z,87.30
2018-11-28T03:37:05.100Z,87.25
2018-11-28T03:38:10.051Z,87.58
2018-11-28T03:39:16.643Z,87.14
2018-11-28T03:40:22.232Z,87.18
2018-11-28T03:41:26.969Z,87.31
2018-11-28T03:42:32.414Z,87.71
2018-11-28T03:43:37.739Z,87.59
2018-11-28T03:44:42.966Z,87.26
2018-11-28T03:45:47.945Z,87.51
2018-11-28T03:46:54.011Z,87.43
2018-11-28T03:47:59.559Z,87.53
2018-11-28T03:49:05.350Z,87.47
2018-11-28T03:50:13.320Z,87.43
2018-11-28T03:51:17.986Z,87.73
2018-11-28T03:52:22.924Z,87.53
2018-11-28T03:53:27.749Z,87.76
2018-11-28T03:54:33.973Z,87.73
2018-11-28T03:55:39.442Z,87.66
2018-11-28T03:56:45.318Z,87.48
2018-11-28T03:57:50.884Z,87.69
2018-11-28T03:58:55.702Z,87.62
2018-11-28T04:00:01.960Z,87.59
2018-11-28T04:01:07.994Z,87.68
2018-11-28T04:02:13.407Z,87.76
2018-11-28T04:03:18.298Z,87.79
2018-11-28T04:04:23.566Z,87.70
2018-11-28T04:05:29.056Z,87.85
2018-11-28T04:06:34.749Z,87.83
2018-11-28T04:07:40.455Z,88.17
2018-11-28T04:08:46.752Z,87.88
2018-11-28T04:09:51.713Z,88.10
2018-11-28T04:10:56.319Z,87.94
2018-11-28T04:12:02.253Z,88.51
2018-11-28T04:13:07.255Z,87.99
2018-11-28T04:14:11.961Z,88.27
2018-11-28T04:15:18.279Z,88.47
2018-11-28T04:16:23.685Z,88.36
2018-11-28T04:17:29.441Z,88.36
2018-11-28T04:18:34.643Z,88.02
2018-11-28T04:19:40.344Z,88.29
2018-11-28T04:20:45.968Z,88.45
2018-11-28T04:21:51.877Z,88.44
2018-11-28T04:22:58.612Z,88.28
2018-11-28T04:24:03.222Z,88.48
2018-11-28T04:25:08.565Z,88.21
2018-11-28T04:26:14.541Z,88.30
2018-11-28T04:27:20.007Z,88.62
2018-11-28T04:28:25.161Z,88.35
2018-11-28T04:29:30.787Z,88.45
2018-11-28T04:30:36.477Z,88.49
2018-11-28T04:31:41.669Z,88.54
2018-11-28T04:32:47.892Z,88.70
2018-11-28T04:33:52.856Z,88.61
2018-11-28T04:34:58.282Z,88.49
2018-11-28T04:36:04.739Z,88.71
2018-11-28T04:37:10.630Z,88.90
2018-11-28T04:38:15.886Z,88.49
2018-11-28T04:39:21.388Z,88.83
2018-11-28T04:41:02.610Z,88.52
2018-11-28T04:42:08.752Z,88.56
2018-11-28T04:43:13.587Z,88.98
2018-11-28T04:44:18.566Z,88.97
2018-11-28T04:45:23.912Z,88.92
2018-11-28T04:46:29.171Z,89.09
2018-11-28T04:47:34.066Z,88.89
2018-11-28T04:48:38.989Z,88.91
2018-11-28T04:49:44.146Z,88.95
2018-11-28T04:50:49.182Z,89.11
2018-11-28T04:51:55.184Z,89.01
2018-11-28T04:53:01.446Z,89.13
2018-11-28T04:54:06.582Z,89.15
2018-11-28T04:55:14.525Z,89.28
2018-11-28T04:56:19.800Z,88.88
2018-11-28T04:57:25.040Z,89.00
2018-11-28T04:58:30.430Z,88.78
2018-11-28T04:59:35.254Z,88.91
2018-11-28T05:00:41.400Z,88.95
2018-11-28T05:01:47.207Z,88.84
2018-11-28T05:02:52.323Z,89.20
2018-11-28T05:03:58.105Z,89.01
2018-11-28T05:05:03.578Z,89.15
2018-11-28T05:06:08.326Z,89.33
2018-11-28T05:07:28.874Z,89.63
2018-11-28T05:08:33.715Z,89.42
2018-11-28T05:09:38.983Z,89.40
2018-11-28T05:10:44.286Z,89.61
2018-11-28T05:11:49.331Z,89.49
2018-11-28T05:12:54.190Z,89.16
2018-11-28T05:13:58.922Z,89.70
2018-11-28T05:15:04.139Z,89.48
2018-11-28T05:16:09.767Z,89.86
2018-11-28T05:17:15.905Z,89.82
2018-11-28T05:18:20.534Z,89.75
2018-11-28T05:19:25.491Z,89.92
2018-11-28T05:20:31.729Z,89.91
2018-11-28T05:21:36.348Z,90.00
2018-11-28T05:22:41.061Z,89.96
2018-11-28T05:23:46.251Z,89.97
2018-11-28T05:24:51.925Z,90.01
2018-11-28T05:25:57.414Z,90.15
2018-11-28T05:27:03.197Z,89.92
2018-11-28T05:28:08.016Z,90.33
2018-11-28T05:29:13.441Z,90.13
2018-11-28T05:30:18.621Z,89.88
2018-11-28T05:31:25.246Z,90.28
2018-11-28T05:32:30.481Z,90.28
2018-11-28T05:33:35.400Z,90.25
2018-11-28T05:34:40.518Z,90.33
2018-11-28T05:35:46.405Z,90.53
2018-11-28T05:36:51.337Z,90.38
2018-11-28T05:37:56.662Z,90.50
2018-11-28T05:39:02.550Z,90.45
2018-11-28T05:40:10.642Z,90.51
2018-11-28T05:41:15.455Z,90.93
2018-11-28T05:42:20.726Z,90.49
2018-11-28T05:43:26.139Z,90.82
2018-11-28T05:44:31.780Z,90.70
2018-11-28T05:45:38.118Z,90.66
2018-11-28T05:46:43.743Z,91.09
2018-11-28T05:47:50.208Z,90.95
2018-11-28T05:48:55.098Z,90.80
2018-11-28T05:50:00.007Z,91.04
2018-11-28T05:51:05.315Z,90.82
2018-11-28T05:52:11.089Z,90.97
2018-11-28T05:53:16.129Z,90.58
2018-11-28T05:54:22.457Z,90.86
2018-11-28T05:55:27.533Z,90.93
2018-11-28T05:56:33.569Z,91.04
2018-11-28T05:57:40.840Z,91.09
2018-11-28T05:58:45.932Z,91.07
2018-11-28T05:59:51.076Z,90.93
2018-11-28T06:00:57.178Z,91.16
2018-11-28T06:02:02.387Z,91.07
2018-11-28T06:03:08.380Z,91.13
2018-11-28T06:04:13.145Z,90.74
2018-11-28T06:05:17.807Z,91.12
2018-11-28T06:06:22.699Z,91.08
2018-11-28T06:07:27.602Z,90.92
2018-11-28T06:08:33.157Z,91.07
2018-11-28T06:09:39.357Z,90.69
2018-11-28T06:10:46.184Z,90.91
2018-11-28T06:11:51.177Z,91.11
2018-11-28T06:12:58.083Z,91.40
2018-11-28T06:14:03.291Z,91.58
2018-11-28T06:15:09.096Z,92.00
2018-11-28T06:16:15.542Z,91.87
2018-11-28T06:17:23.746Z,91.74
2018-11-28T06:18:32.845Z,91.73
2018-11-28T06:19:39.056Z,91.47
2018-11-28T06:20:44.990Z,92.02
2018-11-28T06:21:51.140Z,92.02
2018-11-28T06:22:56.747Z,91.85
2018-11-28T06:24:02.978Z,91.61
2018-11-28T06:25:15.866Z,92.08
2018-11-28T06:26:16.332Z,91.98
2018-11-28T06:27:23.545Z,92.04
2018-11-28T06:28:29.343Z,91.76
2018-11-28T06:29:36.386Z,91.79
2018-11-28T06:43:54.471Z,92.30
2018-11-28T06:45:03.291Z,92.31
2018-11-28T06:46:09.117Z,92.38
2018-11-28T06:47:14.307Z,92.47
2018-11-28T06:48:19.629Z,92.48
2018-11-28T06:49:26.010Z,92.27
2018-11-28T06:50:31.027Z,92.28
2018-11-28T06:51:38.120Z,92.53
2018-11-28T06:52:43.209Z,92.25
2018-11-28T06:53:48.804Z,92.30
2018-11-28T06:54:53.494Z,92.35
2018-11-28T06:56:00.805Z,92.14
2018-11-28T06:57:05.768Z,92.31
2018-11-28T06:58:10.543Z,91.98
2018-11-28T06:59:16.693Z,92.16
2018-11-28T07:00:21.966Z,92.03
2018-11-28T07:01:27.239Z,92.37
2018-11-28T07:02:33.249Z,92.27
2018-11-28T07:03:39.197Z,92.06
2018-11-28T07:04:43.945Z,91.97
2018-11-28T07:05:48.842Z,92.00
2018-11-28T07:06:55.966Z,92.49
2018-11-28T07:08:01.730Z,92.17
2018-11-28T07:09:11.996Z,92.16
2018-11-28T07:10:18.434Z,92.08
2018-11-28T07:11:25.323Z,92.05
2018-11-28T07:12:32.425Z,92.47
2018-11-28T07:13:37.557Z,92.26
2018-11-28T07:14:42.741Z,92.05
2018-11-28T07:15:49.348Z,91.79
2018-11-28T07:16:58.468Z,92.12
2018-11-28T07:18:09.579Z,92.10
2018-11-28T07:19:15.728Z,91.89
2018-11-28T07:20:23.491Z,92.21
2018-11-28T07:21:29.726Z,91.96
2018-11-28T07:22:35.324Z,92.17
2018-11-28T07:23:40.218Z,92.04
2018-11-28T07:24:45.175Z,91.97
2018-11-28T07:25:51.428Z,91.73
2018-11-28T07:26:57.036Z,91.88
2018-11-28T07:28:01.830Z,92.17
2018-11-28T07:29:08.742Z,92.01
2018-11-28T07:30:16.732Z,92.17
2018-11-28T07:31:22.102Z,92.24
2018-11-28T07:32:27.015Z,92.20
2018-11-28T07:33:31.895Z,92.12
2018-11-28T07:34:36.795Z,92.26
2018-11-28T07:35:42.334Z,91.81
2018-11-28T07:36:47.252Z,92.17
2018-11-28T07:37:52.150Z,92.11
2018-11-28T07:38:57.346Z,92.23
2018-11-28T07:40:02.441Z,92.19
2018-11-28T07:41:07.514Z,92.20
2018-11-28T07:42:13.372Z,91.92
2018-11-28T07:43:19.737Z,92.00
2018-11-28T07:44:24.661Z,92.27
2018-11-28T07:45:30.497Z,92.30
2018-11-28T07:46:37.089Z,91.84
2018-11-28T07:47:42.103Z,92.11
2018-11-28T07:48:47.664Z,91.83
2018-11-28T07:49:57.383Z,92.10
2018-11-28T07:51:02.344Z,92.10
2018-11-28T07:52:06.990Z,92.10
2018-11-28T07:53:11.945Z,92.02
2018-11-28T07:54:17.905Z,92.03
2018-11-28T07:55:23.176Z,92.12
2018-11-28T07:56:28.229Z,92.07
2018-11-28T07:57:32.986Z,91.60
2018-11-28T07:58:37.869Z,92.19
2018-11-28T07:59:42.744Z,91.76
2018-11-28T08:00:48.331Z,91.63
2018-11-28T08:01:55.441Z,91.70
2018-11-28T08:03:00.095Z,92.33
2018-11-28T08:04:05.165Z,91.94
2018-11-28T08:05:10.286Z,91.89
2018-11-28T08:06:15.699Z,91.58
2018-11-28T08:07:20.731Z,91.64
2018-11-28T08:08:26.213Z,91.47
2018-11-28T08:09:31.119Z,91.95
2018-11-28T08:10:36.188Z,91.79
2018-11-28T08:11:41.740Z,91.49
2018-11-28T08:12:46.658Z,91.16
2018-11-28T08:13:51.366Z,91.40
2018-11-28T08:14:57.386Z,91.29
2018-11-28T08:16:02.109Z,91.21
2018-11-28T08:17:07.798Z,91.42
2018-11-28T08:18:12.493Z,91.72
2018-11-28T08:19:23.868Z,91.55
2018-11-28T08:20:24.787Z,91.45
2018-11-28T08:21:33.298Z,91.15
2018-11-28T08:22:40.602Z,91.67
2018-11-28T08:23:48.516Z,91.46
2018-11-28T08:24:53.614Z,91.38
2018-11-28T08:25:58.687Z,91.67
2018-11-28T08:27:03.666Z,91.62
2018-11-28T08:28:08.753Z,90.99
2018-11-28T08:29:13.925Z,91.16
2018-11-28T08:30:20.232Z,91.33
2018-11-28T08:31:25.562Z,90.84
2018-11-28T08:32:31.660Z,90.91
2018-11-28T08:33:38.427Z,91.24
2018-11-28T08:34:44.004Z,91.30
2018-11-28T08:35:48.980Z,91.20
2018-11-28T08:36:54.479Z,90.79
2018-11-28T08:37:59.485Z,91.13
2018-11-28T08:39:06.083Z,90.88
2018-11-28T08:40:13.445Z,91.13
2018-11-28T08:41:20.454Z,90.73
2018-11-28T08:42:25.241Z,90.87
2018-11-28T08:43:30.549Z,90.12
2018-11-28T08:44:35.294Z,90.37
2018-11-28T08:45:40.972Z,90.56
2018-11-28T08:46:46.536Z,90.40
2018-11-28T08:47:52.296Z,90.37
2018-11-28T08:48:57.376Z,90.27
2018-11-28T08:50:02.245Z,90.03
2018-11-28T08:51:09.234Z,89.82
2018-11-28T08:52:13.935Z,89.92
2018-11-28T08:53:19.508Z,89.34
2018-11-28T08:54:24.234Z,89.60
2018-11-28T08:55:29.025Z,89.85
2018-11-28T08:56:34.599Z,89.65
2018-11-28T08:57:39.260Z,89.25
2018-11-28T08:58:44.218Z,89.30
2018-11-28T08:59:49.208Z,89.30
2018-11-28T09:00:54.022Z,89.86
2018-11-28T09:01:58.710Z,88.92
2018-11-28T09:03:03.383Z,88.22
2018-11-28T09:04:09.712Z,88.21
2018-11-28T09:05:15.700Z,88.19
2018-11-28T09:06:20.796Z,88.39
2018-11-28T09:07:25.840Z,88.30
2018-11-28T09:08:30.841Z,87.68
2018-11-28T09:09:37.803Z,87.95
2018-11-28T09:10:42.718Z,87.39
2018-11-28T09:11:48.617Z,87.26
2018-11-28T09:12:54.114Z,87.71
2018-11-28T09:14:04.290Z,87.34
2018-11-28T09:15:03.762Z,87.65
2018-11-28T09:16:08.479Z,87.77
2018-11-28T09:17:15.255Z,87.80
2018-11-28T09:18:19.746Z,87.28
2018-11-28T09:19:25.125Z,87.65
2018-11-28T09:20:29.843Z,86.95
2018-11-28T09:21:34.961Z,86.90
2018-11-28T09:22:39.664Z,87.31
2018-11-28T09:23:47.518Z,86.84
2018-11-28T09:24:53.408Z,85.75
2018-11-28T09:26:00.668Z,86.61
2018-11-28T09:27:05.692Z,86.17
2018-11-28T09:28:10.528Z,85.99
2018-11-28T09:29:15.959Z,86.13
2018-11-28T09:30:24.653Z,85.76
2018-11-28T09:31:31.422Z,85.33
2018-11-28T09:32:37.378Z,85.76
2018-11-28T09:33:43.616Z,84.99
2018-11-28T09:34:49.532Z,85.61
2018-11-28T09:35:54.348Z,84.98
2018-11-28T09:36:59.316Z,85.14
2018-11-28T09:38:04.902Z,84.79
2018-11-28T09:39:09.592Z,84.89
2018-11-28T09:40:19.227Z,84.99
2018-11-28T09:41:23.931Z,84.93
2018-11-28T09:42:28.750Z,84.37
2018-11-28T09:43:34.329Z,84.48
2018-11-28T09:44:39.391Z,84.12
2018-11-28T09:45:45.945Z,83.67
2018-11-28T09:46:51.061Z,84.01
2018-11-28T09:47:56.068Z,83.35
2018-11-28T09:49:01.302Z,83.48
2018-11-28T09:50:06.906Z,84.12
2018-11-28T09:51:12.334Z,84.09
2018-11-28T09:52:17.159Z,83.68
2018-11-28T09:53:22.549Z,83.26
2018-11-28T09:54:27.406Z,83.76
2018-11-28T09:55:33.012Z,83.06
2018-11-28T09:56:38.666Z,83.75
2018-11-28T09:57:46.133Z,83.20
2018-11-28T09:58:50.817Z,83.23
2018-11-28T09:59:55.520Z,84.15
2018-11-28T10:01:00.434Z,84.07
2018-11-28T10:02:05.591Z,83.69
2018-11-28T10:03:10.314Z,84.16
2018-11-28T10:04:17.079Z,83.81
2018-11-28T10:05:25.599Z,84.42
2018-11-28T10:06:33.083Z,84.67
2018-11-28T10:07:38.357Z,84.63
2018-11-28T10:08:43.531Z,84.80
2018-11-28T10:09:48.640Z,84.29
2018-11-28T10:10:55.363Z,85.00
2018-11-28T10:12:00.372Z,85.02
2018-11-28T10:13:06.189Z,85.19
2018-11-28T10:14:11.951Z,84.82
2018-11-28T10:15:18.306Z,85.05
2018-11-28T10:16:24.321Z,84.94
2018-11-28T10:17:30.163Z,85.33
2018-11-28T10:18:35.922Z,85.13
2018-11-28T10:19:40.964Z,85.19
2018-11-28T10:20:46.164Z,84.64
2018-11-28T10:21:51.351Z,84.57
2018-11-28T10:22:56.378Z,84.57
2018-11-28T10:24:01.631Z,85.17
2018-11-28T10:25:08.012Z,85.20
2018-11-28T10:26:13.297Z,84.70
2018-11-28T10:27:18.092Z,85.23
2018-11-28T10:28:23.072Z,84.78
2018-11-28T10:29:28.481Z,84.80
2018-11-28T10:30:34.638Z,85.56
2018-11-28T10:31:39.783Z,85.37
2018-11-28T10:32:44.829Z,84.93
2018-11-28T10:33:50.302Z,85.40
2018-11-28T10:34:55.452Z,84.72
2018-11-28T10:36:01.292Z,85.17
2018-11-28T10:37:07.150Z,85.11
2018-11-28T10:38:12.549Z,84.54
2018-11-28T10:39:17.283Z,85.04
2018-11-28T10:40:23.190Z,85.30
2018-11-28T10:41:28.328Z,84.99
2018-11-28T10:42:33.370Z,84.78
2018-11-28T10:43:39.666Z,85.31
2018-11-28T10:44:44.675Z,85.16
2018-11-28T10:45:49.449Z,85.44
2018-11-28T10:46:54.235Z,84.75
2018-11-28T10:48:00.012Z,84.93
2018-11-28T10:49:05.237Z,85.02
2018-11-28T10:50:18.065Z,85.65
2018-11-28T10:51:23.469Z,85.18
2018-11-28T10:52:28.269Z,85.27
2018-11-28T10:53:33.284Z,85.14
2018-11-28T10:54:39.909Z,85.25
2018-11-28T10:55:46.037Z,85.77
2018-11-28T10:56:53.100Z,85.04
2018-11-28T10:57:57.862Z,85.58
2018-11-28T10:59:02.730Z,84.51
2018-11-28T11:00:09.698Z,85.19
2018-11-28T11:01:20.394Z,83.99
2018-11-28T11:02:30.786Z,84.52
2018-11-28T11:03:41.692Z,84.12
2018-11-28T11:04:51.755Z,84.42
2018-11-28T11:06:03.329Z,83.52
2018-11-28T11:07:12.971Z,82.97
2018-11-28T11:08:23.346Z,82.29
2018-11-28T11:09:33.258Z,82.08
2018-11-28T11:10:43.590Z,81.47
2018-11-28T11:11:53.391Z,81.01
2018-11-28T11:13:06.477Z,81.78
2018-11-28T11:14:22.449Z,81.21
2018-11-28T11:15:29.321Z,81.28
2018-11-28T11:16:35.003Z,81.52
2018-11-28T11:17:40.837Z,81.83
2018-11-28T11:18:46.208Z,81.67
2018-11-28T11:19:51.691Z,81.16
2018-11-28T11:20:58.745Z,81.42
2018-11-28T11:22:03.620Z,81.24
2018-11-28T11:23:12.264Z,80.58
2018-11-28T11:24:17.342Z,80.52
2018-11-28T11:25:27.295Z,80.60
2018-11-28T11:26:40.853Z,79.96
2018-11-28T11:27:47.237Z,80.40
2018-11-28T11:28:53.912Z,80.59
2018-11-28T11:29:59.149Z,80.51
2018-11-28T11:42:59.427Z,80.82
2018-11-28T11:44:04.786Z,81.34
2018-11-28T11:45:11.902Z,81.12
2018-11-28T11:46:16.846Z,81.05
2018-11-28T11:47:22.836Z,81.04
2018-11-28T11:48:28.614Z,81.01
2018-11-28T11:49:33.901Z,81.75
2018-11-28T11:50:38.937Z,81.56
2018-11-28T11:51:46.153Z,81.29
2018-11-28T11:52:53.334Z,81.81
2018-11-28T11:53:58.486Z,81.55
2018-11-28T11:55:04.567Z,81.73
2018-11-28T11:56:11.078Z,81.10
2018-11-28T11:57:16.225Z,81.50
2018-11-28T11:58:21.359Z,81.76
2018-11-28T11:59:30.572Z,81.51
2018-11-28T12:00:35.792Z,81.62
2018-11-28T12:01:41.444Z,81.80
2018-11-28T12:02:55.008Z,81.67
2018-11-28T12:04:00.176Z,81.43
2018-11-28T12:05:05.692Z,81.41
2018-11-28T12:06:11.068Z,81.33
2018-11-28T12:07:16.866Z,81.24
2018-11-28T12:08:21.978Z,81.15
2018-11-28T12:09:27.193Z,81.35
2018-11-28T12:10:32.164Z,80.57
2018-11-28T12:11:37.681Z,80.95
2018-11-28T12:12:42.400Z,80.84
2018-11-28T12:13:50.845Z,81.47
2018-11-28T12:14:56.270Z,81.48
2018-11-28T12:16:01.146Z,81.40
2018-11-28T12:17:08.480Z,81.68
2018-11-28T12:18:13.586Z,81.91
2018-11-28T12:19:18.348Z,81.51
2018-11-28T12:20:25.731Z,81.70
2018-11-28T12:21:31.016Z,81.63
2018-11-28T12:22:36.392Z,81.70
2018-11-28T12:23:41.344Z,81.32
2018-11-28T12:24:46.713Z,81.13
2018-11-28T12:25:51.897Z,81.51
2018-11-28T12:26:57.294Z,81.54
2018-11-28T12:28:02.413Z,81.43
2018-11-28T12:29:07.676Z,81.46
2018-11-28T12:30:14.434Z,81.91
2018-11-28T12:31:19.733Z,81.84
2018-11-28T12:32:25.051Z,81.56
2018-11-28T12:33:30.862Z,81.54
2018-11-28T12:34:36.189Z,81.20
2018-11-28T12:35:41.594Z,81.58
2018-11-28T12:36:47.683Z,82.05
2018-11-28T12:37:53.205Z,81.42
2018-11-28T12:38:57.966Z,81.96
2018-11-28T12:40:03.653Z,82.27
2018-11-28T12:41:09.539Z,81.82
2018-11-28T12:42:15.506Z,82.22
2018-11-28T12:43:21.138Z,81.76
2018-11-28T12:44:26.596Z,81.39
2018-11-28T12:45:31.867Z,82.15
2018-11-28T12:46:38.798Z,81.88
2018-11-28T12:47:44.815Z,82.09
2018-11-28T12:48:50.135Z,82.31
2018-11-28T12:49:56.959Z,82.27
2018-11-28T12:51:02.514Z,82.23
2018-11-28T12:52:07.764Z,82.71
2018-11-28T12:53:14.426Z,82.91
2018-11-28T12:54:19.726Z,82.45
2018-11-28T12:55:25.464Z,82.81
2018-11-28T12:56:32.722Z,83.04
2018-11-28T12:57:38.064Z,82.55
2018-11-28T12:58:44.425Z,82.57
2018-11-28T12:59:51.071Z,82.83
2018-11-28T13:00:55.938Z,82.71
2018-11-28T13:02:00.877Z,82.72
2018-11-28T13:03:05.920Z,83.33
2018-11-28T13:04:10.623Z,83.33
2018-11-28T13:05:17.561Z,83.18
2018-11-28T13:06:23.923Z,82.88
2018-11-28T13:07:30.377Z,83.00
2018-11-28T13:08:35.941Z,83.15
2018-11-28T13:09:41.772Z,83.05
2018-11-28T13:10:48.539Z,83.31
2018-11-28T13:11:54.164Z,83.60
2018-11-28T13:13:01.180Z,83.05
2018-11-28T13:14:06.758Z,83.04
2018-11-28T13:15:15.283Z,83.04
2018-11-28T13:16:21.286Z,83.25
2018-11-28T13:17:27.445Z,83.53
2018-11-28T13:18:33.230Z,83.56
2018-11-28T13:19:39.432Z,83.53
2018-11-28T13:20:45.147Z,83.74
2018-11-28T13:21:55.108Z,84.13
2018-11-28T13:22:59.831Z,83.71
2018-11-28T13:24:07.785Z,83.70
2018-11-28T13:25:17.384Z,83.79
2018-11-28T13:26:23.071Z,84.25
2018-11-28T13:27:28.455Z,83.77
2018-11-28T13:28:35.443Z,83.88
2018-11-28T13:29:41.530Z,83.82
2018-11-28T13:30:48.169Z,84.25
2018-11-28T13:31:52.354Z,84.08
2018-11-28T13:32:58.201Z,83.69
2018-11-28T13:34:03.815Z,83.76
2018-11-28T13:35:10.121Z,83.96
2018-11-28T13:36:15.924Z,83.66
2018-11-28T13:37:23.044Z,83.52
2018-11-28T13:38:27.964Z,83.59
2018-11-28T13:39:33.648Z,83.66
2018-11-28T13:40:39.190Z,83.52
2018-11-28T13:41:44.318Z,83.92
2018-11-28T13:42:49.116Z,83.40
2018-11-28T13:43:54.610Z,83.81
2018-11-28T13:45:00.292Z,83.58
2018-11-28T13:46:07.291Z,83.19
2018-11-28T13:47:11.856Z,83.82
2018-11-28T13:48:17.483Z,83.35
2018-11-28T13:49:22.424Z,83.92
2018-11-28T13:50:27.385Z,83.88
2018-11-28T13:51:32.383Z,83.53
2018-11-28T13:52:39.093Z,83.46
2018-11-28T13:53:44.083Z,83.83
2018-11-28T13:55:37.520Z,83.44
2018-11-28T13:56:57.350Z,83.57
2018-11-28T13:57:04.398Z,83.46
2018-11-28T13:58:08.474Z,83.54
2018-11-28T13:59:13.935Z,83.44
2018-11-28T14:00:18.926Z,83.65
2018-11-28T14:01:25.779Z,83.54
2018-11-28T14:02:32.265Z,83.91
2018-11-28T14:03:36.584Z,83.36
2018-11-28T14:04:42.255Z,83.52
2018-11-28T14:05:48.343Z,83.59
2018-11-28T14:06:53.254Z,83.46
2018-11-28T14:07:58.099Z,83.93
2018-11-28T14:09:02.869Z,83.37
2018-11-28T14:10:14.828Z,83.76
2018-11-28T14:11:20.265Z,83.71
2018-11-28T14:12:25.223Z,84.09
2018-11-28T14:13:30.595Z,84.04
2018-11-28T14:14:38.241Z,83.84
2018-11-28T14:15:44.289Z,83.75
2018-11-28T14:16:49.774Z,83.54
2018-11-28T14:17:56.345Z,83.62
2018-11-28T14:19:02.135Z,83.75
2018-11-28T14:20:08.639Z,83.35
2018-11-28T14:21:13.865Z,83.89
2018-11-28T14:22:19.573Z,83.52
2018-11-28T14:23:24.432Z,83.88
2018-11-28T14:24:29.338Z,83.38
2018-11-28T14:25:34.263Z,83.65
2018-11-28T14:26:39.610Z,83.58
2018-11-28T14:27:44.689Z,83.38
2018-11-28T14:28:50.936Z,83.79
2018-11-28T14:29:56.820Z,84.02
2018-11-28T14:31:05.566Z,83.90
2018-11-28T14:32:11.172Z,83.66
2018-11-28T14:33:19.437Z,84.33